createdAt,value
2022-09-17T01:00:53.046Z,3.00
2022-09-17T01:01:55.425Z,2.40
2022-09-17T01:02:58.529Z,3.05
2022-09-17T01:04:00.909Z,2.55
2022-09-17T01:05:03.142Z,2.75
2022-09-17T01:06:41.957Z,2.70
2022-09-17T01:08:00.566Z,2.57
2022-09-17T01:09:10.000Z,2.58
2022-09-17T01:10:31.486Z,2.72
2022-09-17T01:11:42.714Z,2.70
2022-09-17T01:13:12.843Z,2.60
2022-09-17T01:14:17.760Z,2.50
2022-09-17T01:15:29.703Z,2.67
2022-09-17T01:16:43.563Z,2.63
2022-09-17T01:18:03.048Z,2.90
2022-09-17T01:19:50.585Z,2.65
2022-09-17T01:21:20.088Z,2.77
2022-09-17T01:22:41.242Z,3.00
2022-09-17T01:24:08.517Z,3.10
2022-09-17T01:25:23.189Z,3.15
2022-09-17T01:26:54.956Z,3.17
2022-09-17T01:28:12.222Z,3.15
2022-09-17T01:29:41.506Z,2.85
2022-09-17T01:31:02.068Z,2.85
2022-09-17T01:32:16.939Z,3.20
2022-09-17T01:33:37.431Z,3.28
2022-09-17T01:34:54.012Z,2.63
2022-09-17T01:36:11.227Z,2.78
2022-09-17T01:37:28.898Z,2.80
2022-09-17T01:38:38.419Z,3.15
2022-09-17T01:39:56.222Z,3.00
2022-09-17T01:41:27.105Z,2.95
2022-09-17T01:42:57.020Z,3.10
2022-09-17T01:44:05.099Z,3.10
2022-09-17T01:45:17.487Z,4.93
2022-09-17T01:46:44.164Z,2.88
2022-09-17T01:47:56.883Z,4.90
2022-09-17T01:49:06.146Z,3.35
2022-09-17T01:50:13.425Z,3.00
2022-09-17T01:51:22.185Z,2.70
2022-09-17T01:52:26.838Z,3.17
2022-09-17T01:53:47.902Z,2.95
2022-09-17T01:54:58.119Z,2.80
2022-09-17T01:56:03.899Z,2.95
2022-09-17T01:57:13.005Z,2.90
2022-09-17T01:58:22.489Z,2.65
2022-09-17T01:59:46.891Z,3.10
2022-09-17T02:00:56.202Z,3.30
2022-09-17T02:02:07.158Z,2.78
2022-09-17T02:03:20.472Z,3.08
2022-09-17T02:04:35.714Z,2.92
2022-09-17T02:06:03.837Z,2.45
2022-09-17T02:07:15.695Z,3.28
2022-09-17T02:08:22.421Z,2.70
2022-09-17T02:09:33.805Z,2.72
2022-09-17T02:10:42.472Z,2.30
2022-09-17T02:11:49.566Z,2.80
2022-09-17T02:13:01.525Z,3.03
2022-09-17T02:14:10.287Z,2.72
2022-09-17T02:15:24.039Z,2.72
2022-09-17T02:16:29.088Z,2.50
2022-09-17T02:17:39.398Z,2.30
2022-09-17T02:19:02.479Z,3.03
2022-09-17T02:20:05.878Z,2.40
2022-09-17T02:21:43.287Z,2.60
2022-09-17T02:22:56.810Z,2.45
2022-09-17T02:24:07.710Z,2.80
2022-09-17T02:25:42.285Z,2.67
2022-09-17T02:26:50.357Z,2.53
2022-09-17T02:28:03.316Z,2.90
2022-09-17T02:29:18.028Z,2.80
2022-09-17T02:30:20.185Z,2.95
2022-09-17T02:31:22.927Z,3.00
2022-09-17T02:32:25.094Z,3.15
2022-09-17T02:33:28.504Z,2.50
2022-09-17T02:34:31.185Z,2.45
2022-09-17T02:35:33.480Z,3.00
2022-09-17T02:36:35.838Z,2.60
2022-09-17T02:37:38.127Z,2.88
2022-09-17T02:38:44.579Z,2.90
2022-09-17T02:39:47.534Z,2.80
2022-09-17T02:40:54.843Z,3.13
2022-09-17T02:42:18.217Z,2.80
2022-09-17T02:43:30.699Z,2.40
2022-09-17T02:44:50.682Z,2.55
2022-09-17T02:46:23.842Z,2.65
2022-09-17T02:47:54.131Z,2.80
2022-09-17T02:49:07.369Z,2.60
2022-09-17T02:50:25.821Z,2.85
2022-09-17T02:51:54.266Z,2.60
2022-09-17T02:53:23.881Z,2.78
2022-09-17T02:54:52.256Z,2.60
2022-09-17T02:56:19.138Z,3.03
2022-09-17T02:57:29.280Z,2.90
2022-09-17T02:58:43.523Z,2.85
2022-09-17T03:00:04.881Z,3.10
2022-09-17T03:01:18.214Z,2.50
2022-09-17T03:02:29.229Z,2.60
2022-09-17T03:03:39.312Z,2.70
2022-09-17T03:04:42.055Z,2.92
2022-09-17T03:05:45.618Z,2.60
2022-09-17T03:06:49.263Z,2.45
2022-09-17T03:07:53.481Z,2.65
2022-09-17T03:08:58.063Z,2.78
2022-09-17T03:10:00.904Z,3.08
2022-09-17T03:11:05.557Z,2.67
2022-09-17T03:12:07.858Z,2.60
2022-09-17T03:13:10.001Z,2.55
2022-09-17T03:14:12.155Z,2.58
2022-09-17T03:15:14.475Z,2.38
2022-09-17T03:16:16.614Z,2.50
2022-09-17T03:17:19.043Z,2.60
2022-09-17T03:18:21.164Z,2.90
2022-09-17T03:19:23.624Z,2.90
2022-09-17T03:20:25.886Z,2.90
2022-09-17T03:21:28.001Z,2.47
2022-09-17T03:22:30.159Z,2.90
2022-09-17T03:23:32.953Z,2.63
2022-09-17T03:24:35.015Z,3.10
2022-09-17T03:25:37.116Z,2.97
2022-09-17T03:26:39.524Z,2.55
2022-09-17T03:27:41.641Z,2.47
2022-09-17T03:28:43.739Z,2.40
2022-09-17T03:29:46.121Z,2.30
2022-09-17T03:30:48.314Z,2.60
2022-09-17T03:31:50.512Z,2.90
2022-09-17T03:32:52.842Z,2.63
2022-09-17T03:33:55.119Z,2.33
2022-09-17T03:34:57.261Z,2.80
2022-09-17T03:35:59.407Z,2.80
2022-09-17T03:37:01.686Z,2.78
2022-09-17T03:38:03.924Z,2.72
2022-09-17T03:39:06.390Z,2.50
2022-09-17T03:40:08.861Z,2.50
2022-09-17T03:41:11.516Z,2.45
2022-09-17T03:42:13.637Z,2.25
2022-09-17T03:43:16.594Z,2.57
2022-09-17T03:44:19.543Z,2.35
2022-09-17T03:45:21.775Z,2.20
2022-09-17T03:46:24.057Z,2.80
2022-09-17T03:47:26.407Z,2.70
2022-09-17T03:48:29.671Z,2.90
2022-09-17T03:49:31.785Z,2.80
2022-09-17T03:50:33.868Z,2.80
2022-09-17T03:51:36.045Z,2.55
2022-09-17T03:52:38.201Z,2.92
2022-09-17T03:53:40.324Z,2.53
2022-09-17T03:54:42.616Z,2.70
2022-09-17T03:55:45.086Z,3.00
2022-09-17T03:56:47.261Z,3.05
2022-09-17T03:57:49.723Z,2.70
2022-09-17T03:58:51.747Z,2.50
2022-09-17T03:59:53.914Z,2.63
2022-09-17T04:00:57.994Z,2.78
2022-09-17T04:02:00.261Z,2.58
2022-09-17T04:03:03.234Z,2.72
2022-09-17T04:04:05.427Z,2.60
2022-09-17T04:05:08.440Z,2.85
2022-09-17T04:06:10.613Z,2.80
2022-09-17T04:07:13.966Z,2.83
2022-09-17T04:08:18.626Z,2.60
2022-09-17T04:09:23.127Z,2.70
2022-09-17T04:10:26.770Z,2.70
2022-09-17T04:11:30.442Z,2.58
2022-09-17T04:12:34.934Z,2.35
2022-09-17T04:13:39.962Z,2.80
2022-09-17T04:14:43.955Z,2.33
2022-09-17T04:15:49.119Z,2.70
2022-09-17T04:16:52.716Z,2.80
2022-09-17T04:18:00.655Z,2.75
2022-09-17T04:19:04.823Z,2.65
2022-09-17T04:20:08.193Z,2.60
2022-09-17T04:21:13.185Z,2.88
2022-09-17T04:22:17.208Z,2.50
2022-09-17T04:23:26.804Z,2.90
2022-09-17T04:24:32.375Z,2.60
2022-09-17T04:25:37.254Z,2.50
2022-09-17T04:26:41.975Z,2.78
2022-09-17T04:27:46.833Z,2.55
2022-09-17T04:28:51.696Z,2.55
2022-09-17T04:29:55.791Z,2.80
2022-09-17T04:30:59.656Z,2.63
2022-09-17T04:32:03.008Z,2.47
2022-09-17T04:33:05.969Z,2.50
2022-09-17T04:34:08.894Z,2.88
2022-09-17T04:35:12.419Z,2.10
2022-09-17T04:36:15.140Z,2.70
2022-09-17T04:37:20.584Z,2.40
2022-09-17T04:38:24.206Z,2.42
2022-09-17T04:39:27.406Z,2.40
2022-09-17T04:40:30.333Z,2.30
2022-09-17T04:41:33.293Z,2.60
2022-09-17T04:42:36.268Z,2.38
2022-09-17T04:43:40.508Z,2.60
2022-09-17T04:44:44.320Z,2.70
2022-09-17T04:45:48.545Z,2.50
2022-09-17T04:46:51.934Z,2.50
2022-09-17T04:47:54.933Z,2.60
2022-09-17T04:48:57.853Z,2.97
2022-09-17T04:50:00.593Z,2.85
2022-09-17T04:51:03.357Z,2.67
2022-09-17T04:52:05.915Z,2.70
2022-09-17T04:53:08.586Z,2.90
2022-09-17T04:54:10.802Z,2.70
2022-09-17T04:55:13.585Z,2.60
2022-09-17T04:56:16.391Z,2.40
2022-09-17T04:57:18.791Z,2.60
2022-09-17T04:58:21.182Z,2.95
2022-09-17T04:59:23.990Z,2.72
2022-09-17T05:00:26.515Z,2.85
2022-09-17T05:01:29.021Z,2.70
2022-09-17T05:02:33.002Z,2.40
2022-09-17T05:03:35.269Z,2.85
2022-09-17T05:04:37.669Z,2.60
2022-09-17T05:05:40.403Z,3.00
2022-09-17T05:06:42.704Z,2.50
2022-09-17T05:07:47.685Z,2.83
2022-09-17T05:08:50.899Z,2.65
2022-09-17T05:09:53.961Z,3.47
2022-09-17T05:10:56.763Z,2.80
2022-09-17T05:11:58.889Z,2.80
2022-09-17T05:13:01.144Z,2.60
2022-09-17T05:14:03.612Z,2.80
2022-09-17T05:15:06.906Z,2.97
2022-09-17T05:16:09.771Z,3.40
2022-09-17T05:17:12.185Z,2.85
2022-09-17T05:18:16.224Z,2.83
2022-09-17T05:19:18.860Z,3.13
2022-09-17T05:20:21.229Z,2.88
2022-09-17T05:21:23.402Z,3.25
2022-09-17T05:22:25.663Z,2.63
2022-09-17T05:23:27.681Z,2.97
2022-09-17T05:24:29.773Z,2.72
2022-09-17T05:25:32.646Z,2.55
2022-09-17T05:26:34.829Z,3.05
2022-09-17T05:27:37.627Z,2.63
2022-09-17T05:28:39.770Z,2.93
2022-09-17T05:29:41.937Z,2.92
2022-09-17T05:30:44.026Z,2.65
2022-09-17T05:31:46.130Z,3.05
2022-09-17T05:32:48.840Z,2.50
2022-09-17T05:33:50.991Z,3.00
2022-09-17T05:34:53.166Z,2.78
2022-09-17T05:35:55.366Z,3.00
2022-09-17T05:36:57.523Z,2.90
2022-09-17T05:38:05.698Z,2.97
2022-09-17T05:39:07.882Z,3.10
2022-09-17T05:40:10.417Z,2.80
2022-09-17T05:41:12.722Z,2.65
2022-09-17T05:42:14.883Z,3.25
2022-09-17T05:43:19.607Z,4.07
2022-09-17T05:44:22.225Z,2.80
2022-09-17T05:45:24.376Z,3.55
2022-09-17T05:46:26.625Z,3.20
2022-09-17T05:47:28.798Z,3.42
2022-09-17T05:48:31.066Z,3.60
2022-09-17T05:49:33.215Z,2.90
2022-09-17T05:50:35.605Z,3.08
2022-09-17T05:51:38.291Z,3.22
2022-09-17T05:52:40.513Z,3.40
2022-09-17T05:53:42.620Z,3.45
2022-09-17T05:54:44.931Z,3.10
2022-09-17T05:55:47.079Z,2.90
2022-09-17T05:56:52.890Z,2.90
2022-09-17T05:57:55.003Z,3.30
2022-09-17T05:58:57.594Z,3.00
2022-09-17T05:59:59.835Z,3.20
2022-09-17T06:01:02.292Z,3.08
2022-09-17T06:02:05.609Z,3.20
2022-09-17T06:03:10.799Z,3.28
2022-09-17T06:04:13.079Z,3.53
2022-09-17T06:05:15.221Z,3.30
2022-09-17T06:06:17.539Z,3.20
2022-09-17T06:07:19.900Z,3.40
2022-09-17T06:08:22.801Z,3.50
2022-09-17T06:09:24.968Z,3.60
2022-09-17T06:10:27.153Z,3.30
2022-09-17T06:11:29.473Z,3.67
2022-09-17T06:12:35.793Z,3.50
2022-09-17T06:13:39.173Z,3.63
2022-09-17T06:14:41.364Z,3.55
2022-09-17T06:15:43.630Z,3.13
2022-09-17T06:16:45.854Z,3.88
2022-09-17T06:17:48.220Z,3.55
2022-09-17T06:18:53.055Z,3.50
2022-09-17T06:19:55.255Z,4.00
2022-09-17T06:21:04.357Z,4.20
2022-09-17T06:22:06.554Z,3.42
2022-09-17T06:23:12.707Z,3.45
2022-09-17T06:24:17.524Z,3.70
2022-09-17T06:25:19.633Z,3.58
2022-09-17T06:26:21.710Z,3.20
2022-09-17T06:27:23.919Z,3.40
2022-09-17T06:28:27.635Z,3.63
2022-09-17T06:29:29.796Z,3.35
2022-09-17T06:30:31.967Z,3.92
2022-09-17T06:31:34.356Z,3.13
2022-09-17T06:32:36.646Z,3.20
2022-09-17T06:33:39.023Z,3.30
2022-09-17T06:34:41.378Z,3.30
2022-09-17T06:35:43.646Z,4.03
2022-09-17T06:36:45.845Z,3.53
2022-09-17T06:37:48.233Z,3.83
2022-09-17T06:38:50.810Z,3.60
2022-09-17T06:39:52.961Z,3.30
2022-09-17T06:40:55.326Z,3.50
2022-09-17T06:41:57.545Z,3.53
2022-09-17T06:43:02.190Z,3.10
2022-09-17T06:44:07.437Z,3.20
2022-09-17T06:45:16.609Z,3.50
2022-09-17T06:46:22.153Z,3.63
2022-09-17T06:47:27.528Z,3.08
2022-09-17T06:48:34.986Z,3.60
2022-09-17T06:49:40.232Z,3.67
2022-09-17T06:50:48.002Z,3.90
2022-09-17T06:51:51.932Z,3.55
2022-09-17T06:52:58.735Z,3.60
2022-09-17T06:54:17.549Z,3.42
2022-09-17T06:55:33.592Z,3.30
2022-09-17T06:56:42.396Z,3.47
2022-09-17T06:57:50.772Z,3.97
2022-09-17T06:58:56.663Z,3.72
2022-09-17T07:00:01.469Z,3.60
2022-09-17T07:01:08.114Z,3.30
2022-09-17T07:02:13.428Z,3.60
2022-09-17T07:03:21.178Z,3.25
2022-09-17T07:04:25.597Z,3.20
2022-09-17T07:05:29.426Z,2.88
2022-09-17T07:06:33.775Z,3.60
2022-09-17T07:07:37.704Z,3.10
2022-09-17T07:08:43.258Z,3.40
2022-09-17T07:09:47.054Z,3.40
2022-09-17T07:10:52.009Z,3.70
2022-09-17T07:11:55.501Z,3.15
2022-09-17T07:13:00.468Z,3.90
2022-09-17T07:14:06.375Z,3.22
2022-09-17T07:15:17.087Z,3.57
2022-09-17T07:16:22.272Z,3.55
2022-09-17T07:17:27.294Z,3.22
2022-09-17T07:18:32.134Z,3.53
2022-09-17T07:19:34.954Z,3.60
2022-09-17T07:20:37.522Z,3.30
2022-09-17T07:21:39.694Z,3.58
2022-09-17T07:22:44.306Z,3.30
2022-09-17T07:23:49.303Z,3.55
2022-09-17T07:24:52.647Z,3.80
2022-09-17T07:25:59.680Z,3.90
2022-09-17T07:27:04.397Z,3.60
2022-09-17T07:28:09.340Z,3.67
2022-09-17T07:29:14.486Z,3.20
2022-09-17T07:30:18.964Z,3.53
2022-09-17T07:31:22.032Z,3.47
2022-09-17T07:32:25.838Z,3.63
2022-09-17T07:33:29.330Z,3.80
2022-09-17T07:34:31.677Z,3.85
2022-09-17T07:35:33.765Z,3.88
2022-09-17T07:36:36.951Z,4.07
2022-09-17T07:37:41.046Z,4.07
2022-09-17T07:38:46.313Z,3.78
2022-09-17T07:39:50.065Z,4.20
2022-09-17T07:41:05.927Z,4.32
2022-09-17T07:42:11.221Z,3.78
2022-09-17T07:43:15.406Z,3.85
2022-09-17T07:44:17.684Z,3.65
2022-09-17T07:45:23.318Z,3.90
2022-09-17T07:46:25.630Z,3.78
2022-09-17T07:47:28.279Z,3.53
2022-09-17T07:48:32.485Z,4.38
2022-09-17T07:49:35.526Z,3.85
2022-09-17T07:50:40.538Z,3.60
2022-09-17T07:51:45.435Z,3.83
2022-09-17T07:52:53.696Z,3.75
2022-09-17T07:54:00.435Z,4.05
2022-09-17T07:55:04.363Z,3.95
2022-09-17T07:56:11.860Z,3.97
2022-09-17T07:57:14.390Z,4.10
2022-09-17T07:58:19.709Z,4.07
2022-09-17T07:59:23.763Z,4.22
2022-09-17T08:00:28.275Z,4.00
2022-09-17T08:01:40.234Z,3.88
2022-09-17T08:02:44.414Z,3.58
2022-09-17T08:03:53.264Z,3.85
2022-09-17T08:04:58.086Z,4.13
2022-09-17T08:06:14.485Z,4.00
2022-09-17T08:07:17.837Z,4.35
2022-09-17T08:08:21.992Z,4.13
2022-09-17T08:09:26.123Z,4.40
2022-09-17T08:10:30.454Z,3.90
2022-09-17T08:12:59.751Z,4.40
2022-09-17T08:14:03.374Z,4.95
2022-09-17T08:15:08.124Z,4.70
2022-09-17T08:16:16.563Z,4.10
2022-09-17T08:17:20.493Z,4.15
2022-09-17T08:18:23.825Z,4.40
2022-09-17T08:19:30.405Z,3.72
2022-09-17T08:20:34.222Z,3.77
2022-09-17T08:21:38.072Z,3.95
2022-09-17T08:22:40.463Z,3.63
2022-09-17T08:23:44.109Z,4.40
2022-09-17T08:24:47.378Z,3.53
2022-09-17T08:25:59.099Z,4.35
2022-09-17T08:27:03.867Z,4.20
2022-09-17T08:28:09.190Z,4.15
2022-09-17T08:29:13.165Z,4.10
2022-09-17T08:30:19.259Z,3.00
2022-09-17T08:31:25.210Z,4.37
2022-09-17T08:32:30.367Z,3.50
2022-09-17T08:33:35.563Z,3.55
2022-09-17T08:34:38.495Z,4.57
2022-09-17T08:35:40.912Z,4.20
2022-09-17T08:36:45.046Z,3.38
2022-09-17T08:37:49.859Z,4.32
2022-09-17T08:38:59.224Z,4.00
2022-09-17T08:40:03.082Z,3.70
2022-09-17T08:41:15.145Z,4.07
2022-09-17T08:42:36.788Z,3.67
2022-09-17T08:43:44.210Z,3.40
2022-09-17T08:44:52.118Z,4.38
2022-09-17T08:45:57.845Z,3.70
2022-09-17T08:47:34.685Z,3.95
2022-09-17T08:49:02.981Z,3.33
2022-09-17T08:50:13.768Z,4.82
2022-09-17T08:51:35.380Z,3.50
2022-09-17T08:52:46.239Z,3.40
2022-09-17T08:54:24.491Z,3.20
2022-09-17T08:56:12.794Z,3.00
2022-09-17T08:57:34.883Z,3.45
2022-09-17T08:58:42.029Z,3.33
2022-09-17T09:00:18.333Z,4.15
2022-09-17T09:01:45.149Z,4.10
2022-09-17T09:03:01.074Z,4.22
2022-09-17T09:04:23.293Z,4.15
2022-09-17T09:05:31.591Z,4.05
2022-09-17T09:06:48.559Z,4.20
2022-09-17T09:08:32.842Z,4.22
2022-09-17T09:09:43.163Z,5.07
2022-09-17T09:10:56.037Z,4.22
2022-09-17T09:12:07.053Z,4.20
2022-09-17T09:13:16.067Z,3.63
2022-09-17T09:14:24.839Z,4.20
2022-09-17T09:15:47.484Z,3.30
2022-09-17T09:16:53.499Z,2.83
2022-09-17T09:18:03.828Z,4.15
2022-09-17T09:19:38.993Z,5.55
2022-09-17T09:20:55.857Z,6.90
2022-09-17T09:22:25.550Z,5.87
2022-09-17T09:23:41.504Z,4.25
2022-09-17T09:25:18.992Z,4.53
2022-09-17T09:26:24.014Z,3.78
2022-09-17T09:27:35.371Z,3.92
2022-09-17T09:29:16.435Z,3.35
2022-09-17T09:30:24.779Z,3.50
2022-09-17T09:32:15.598Z,4.72
2022-09-17T09:33:33.304Z,4.13
2022-09-17T09:34:39.532Z,3.80
2022-09-17T09:35:45.565Z,3.73
2022-09-17T09:36:52.198Z,4.10
2022-09-17T09:38:25.131Z,4.38
2022-09-17T09:39:40.336Z,4.57
2022-09-17T09:41:07.018Z,3.50
2022-09-17T09:42:21.020Z,3.45
2022-09-17T09:44:03.192Z,3.40
2022-09-17T09:45:22.697Z,3.83
2022-09-17T09:46:46.846Z,3.30
2022-09-17T09:48:12.974Z,2.95
2022-09-17T09:49:51.180Z,4.87
2022-09-17T09:51:31.455Z,3.67
2022-09-17T09:53:11.538Z,3.70
2022-09-17T09:54:36.923Z,4.43
2022-09-17T09:56:13.308Z,3.10
2022-09-17T09:57:22.540Z,2.80
2022-09-17T09:58:38.663Z,3.30
2022-09-17T09:59:44.286Z,3.20
2022-09-17T10:00:50.295Z,3.40
2022-09-17T10:01:53.532Z,3.58
2022-09-17T10:03:03.265Z,3.47
2022-09-17T10:04:20.946Z,3.03
2022-09-17T10:05:23.641Z,3.65
2022-09-17T10:06:31.404Z,3.63
2022-09-17T10:07:44.767Z,3.40
2022-09-17T10:08:56.444Z,4.07
2022-09-17T10:10:11.953Z,3.22
2022-09-17T10:11:23.847Z,3.55
2022-09-17T10:12:26.201Z,3.28
2022-09-17T10:13:31.345Z,4.22
2022-09-17T10:14:38.238Z,4.40
2022-09-17T10:15:40.536Z,3.60
2022-09-17T10:16:44.675Z,3.42
2022-09-17T10:17:48.509Z,3.60
2022-09-17T10:19:11.353Z,3.90
2022-09-17T10:20:20.776Z,3.47
2022-09-17T10:21:33.615Z,4.05
2022-09-17T10:22:37.400Z,3.55
2022-09-17T10:23:44.103Z,4.00
2022-09-17T10:24:47.371Z,3.35
2022-09-17T10:25:52.767Z,3.60
2022-09-17T10:27:18.403Z,3.78
2022-09-17T10:28:31.272Z,3.30
2022-09-17T10:29:36.838Z,3.50
2022-09-17T10:30:55.585Z,3.67
2022-09-17T10:31:59.563Z,4.18
2022-09-17T10:33:21.698Z,4.32
2022-09-17T10:34:29.055Z,4.10
2022-09-17T10:35:34.030Z,3.35
2022-09-17T10:36:40.631Z,3.80
2022-09-17T10:37:51.293Z,4.73
2022-09-17T10:38:53.805Z,3.50
2022-09-17T10:39:57.878Z,4.10
2022-09-17T10:41:19.216Z,3.63
2022-09-17T10:42:23.931Z,3.80
2022-09-17T10:43:27.798Z,3.80
2022-09-17T10:44:34.701Z,4.32
2022-09-17T10:45:42.501Z,3.92
2022-09-17T10:46:45.086Z,4.20
2022-09-17T10:47:47.313Z,4.00
2022-09-17T10:48:57.577Z,3.77
2022-09-17T10:50:01.589Z,3.75
2022-09-17T10:51:06.339Z,3.50
2022-09-17T10:52:41.478Z,4.53
2022-09-17T10:54:07.671Z,4.10
2022-09-17T10:55:37.152Z,3.90
2022-09-17T10:56:48.420Z,4.15
2022-09-17T10:58:04.287Z,3.35
2022-09-17T10:59:31.945Z,3.78
2022-09-17T11:00:59.252Z,4.32
2022-09-17T11:02:30.447Z,3.43
2022-09-17T11:03:55.224Z,4.80
2022-09-17T11:05:06.261Z,5.70
2022-09-17T11:06:19.316Z,4.43
2022-09-17T11:07:33.571Z,4.57
2022-09-17T11:08:50.696Z,4.05
2022-09-17T11:10:03.012Z,3.42
2022-09-17T11:11:16.899Z,3.85
2022-09-17T11:12:40.275Z,3.95
2022-09-17T11:14:05.560Z,3.05
2022-09-17T11:15:27.897Z,3.67
2022-09-17T11:16:51.533Z,4.43
2022-09-17T11:17:56.609Z,3.67
2022-09-17T11:19:10.477Z,2.97
2022-09-17T11:20:24.696Z,3.38
2022-09-17T11:21:31.230Z,3.05
2022-09-17T11:22:54.172Z,3.58
2022-09-17T11:24:25.704Z,4.45
2022-09-17T11:25:28.572Z,4.05
2022-09-17T11:26:47.765Z,4.10
2022-09-17T11:28:03.009Z,4.33
2022-09-17T11:29:38.940Z,3.72
2022-09-17T11:31:24.051Z,4.00
2022-09-17T11:32:49.380Z,4.18
2022-09-17T11:33:56.350Z,4.05
2022-09-17T11:35:12.499Z,3.72
2022-09-17T11:36:53.318Z,4.00
2022-09-17T11:38:22.253Z,3.47
2022-09-17T11:39:37.191Z,3.92
2022-09-17T11:40:58.194Z,3.20
2022-09-17T11:42:06.147Z,4.30
2022-09-17T11:43:16.410Z,3.53
2022-09-17T11:44:30.183Z,4.10
2022-09-17T11:45:42.975Z,4.45
2022-09-17T11:46:57.508Z,3.55
2022-09-17T11:48:10.806Z,3.60
2022-09-17T11:49:42.290Z,3.78
2022-09-17T11:51:22.674Z,3.85
2022-09-17T11:52:28.572Z,3.63
2022-09-17T11:53:45.697Z,3.70
2022-09-17T11:55:12.057Z,4.30
2022-09-17T11:56:25.897Z,3.75
2022-09-17T11:57:35.413Z,3.45
2022-09-17T11:59:05.948Z,3.90
2022-09-17T12:00:24.400Z,3.90
2022-09-17T12:01:41.725Z,4.35
2022-09-17T12:03:16.598Z,4.00
2022-09-17T12:04:39.146Z,4.13
2022-09-17T12:06:03.696Z,3.88
2022-09-17T12:07:44.217Z,3.83
2022-09-17T12:09:14.346Z,4.03
2022-09-17T12:10:56.135Z,3.72
2022-09-17T12:12:21.759Z,3.05
2022-09-17T12:13:51.831Z,4.50
2022-09-17T12:15:03.720Z,3.92
2022-09-17T12:16:19.029Z,3.92
2022-09-17T12:17:28.693Z,4.30
2022-09-17T12:19:00.972Z,3.97
2022-09-17T12:20:11.724Z,3.28
2022-09-17T12:21:18.442Z,3.60
2022-09-17T12:22:40.100Z,4.50
2022-09-17T12:23:50.071Z,3.30
2022-09-17T12:24:53.866Z,3.85
2022-09-17T12:26:16.152Z,4.03
2022-09-17T12:27:42.611Z,4.13
2022-09-17T12:29:26.325Z,4.00
2022-09-17T12:30:48.464Z,3.53
2022-09-17T12:31:57.377Z,4.00
2022-09-17T12:33:34.269Z,3.78
2022-09-17T12:35:17.695Z,4.00
2022-09-17T12:36:32.882Z,3.63
2022-09-17T12:37:41.282Z,3.85
2022-09-17T12:39:03.591Z,4.28
2022-09-17T12:40:24.458Z,3.83
2022-09-17T12:41:49.028Z,3.58
2022-09-17T12:43:18.750Z,3.97
2022-09-17T12:44:29.885Z,3.42
2022-09-17T12:45:57.068Z,4.20
2022-09-17T12:47:27.534Z,4.32
2022-09-17T12:48:41.655Z,3.50
2022-09-17T12:50:01.239Z,3.57
2022-09-17T12:51:24.980Z,3.63
2022-09-17T12:52:36.021Z,4.63
2022-09-17T12:53:58.391Z,3.97
2022-09-17T12:55:32.745Z,3.83
2022-09-17T12:56:37.742Z,3.60
2022-09-17T12:57:48.763Z,3.55
2022-09-17T12:59:10.013Z,3.50
2022-09-17T13:00:14.831Z,3.38
2022-09-17T13:01:32.947Z,3.90
2022-09-17T13:03:04.321Z,3.50
2022-09-17T13:04:15.286Z,3.72
2022-09-17T13:05:32.787Z,3.67
2022-09-17T13:07:14.044Z,3.45
2022-09-17T13:08:25.836Z,3.10
2022-09-17T13:09:52.972Z,3.47
2022-09-17T13:11:13.737Z,2.83
2022-09-17T13:12:25.932Z,3.03
2022-09-17T13:14:03.794Z,3.25
2022-09-17T13:15:30.923Z,3.30
2022-09-17T13:16:53.659Z,2.97
2022-09-17T13:18:23.760Z,3.53
2022-09-17T13:19:54.522Z,3.10
2022-09-17T13:21:24.229Z,3.20
2022-09-17T13:22:33.951Z,3.08
2022-09-17T13:23:38.874Z,3.42
2022-09-17T13:24:44.785Z,2.92
2022-09-17T13:25:55.592Z,3.38
2022-09-17T13:27:01.455Z,2.95
2022-09-17T13:28:10.443Z,3.13
2022-09-17T13:29:13.988Z,3.37
2022-09-17T13:30:18.272Z,3.17
2022-09-17T13:31:44.919Z,2.92
2022-09-17T13:32:52.280Z,3.70
2022-09-17T13:34:02.300Z,3.58
2022-09-17T13:35:10.230Z,3.50
2022-09-17T13:36:43.549Z,3.83
2022-09-17T13:37:58.579Z,3.33
2022-09-17T13:39:05.937Z,2.80
2022-09-17T13:40:28.535Z,3.13
2022-09-17T13:41:35.812Z,3.20
2022-09-17T13:42:47.743Z,3.30
2022-09-17T13:43:55.234Z,3.17
2022-09-17T13:45:13.274Z,2.95
2022-09-17T13:46:22.869Z,3.28
2022-09-17T13:47:40.164Z,3.72
2022-09-17T13:48:49.520Z,3.15
2022-09-17T13:50:09.264Z,3.72
2022-09-17T13:51:30.358Z,3.47
2022-09-17T13:52:43.987Z,3.42
2022-09-17T13:53:54.783Z,3.17
2022-09-17T13:54:57.047Z,3.35
2022-09-17T13:56:03.635Z,3.10
2022-09-17T13:57:15.039Z,3.72
2022-09-17T13:58:19.838Z,3.90
2022-09-17T13:59:27.463Z,3.55
2022-09-17T14:00:55.598Z,2.95
2022-09-17T14:02:16.204Z,3.45
2022-09-17T14:03:44.703Z,3.30
2022-09-17T14:04:48.638Z,3.28
2022-09-17T14:05:50.755Z,3.20
2022-09-17T14:06:53.978Z,3.13
2022-09-17T14:08:14.862Z,3.17
2022-09-17T14:09:50.403Z,3.10
2022-09-17T14:10:52.854Z,2.55
2022-09-17T14:11:55.007Z,3.22
2022-09-17T14:13:40.463Z,3.13
2022-09-17T14:14:52.414Z,3.20
2022-09-17T14:16:00.789Z,3.35
2022-09-17T14:17:03.614Z,3.08
2022-09-17T14:18:28.711Z,3.03
2022-09-17T14:19:51.559Z,3.50
2022-09-17T14:21:05.580Z,4.00
2022-09-17T14:22:24.839Z,3.30
2022-09-17T14:23:27.455Z,3.42
2022-09-17T14:24:40.260Z,3.55
2022-09-17T14:25:49.573Z,3.80
2022-09-17T14:27:11.174Z,3.35
2022-09-17T14:28:42.756Z,3.35
2022-09-17T14:30:02.901Z,3.17
2022-09-17T14:31:18.673Z,3.20
2022-09-17T14:32:42.413Z,3.63
2022-09-17T14:33:46.646Z,3.70
2022-09-17T14:34:49.915Z,3.45
2022-09-17T14:35:57.510Z,3.70
2022-09-17T14:37:00.024Z,3.30
2022-09-17T14:38:34.457Z,4.38
2022-09-17T14:39:39.377Z,3.50
2022-09-17T14:40:49.689Z,3.83
2022-09-17T14:41:54.602Z,4.00
2022-09-17T14:42:58.416Z,3.63
2022-09-17T14:44:13.016Z,3.50
2022-09-17T14:45:25.112Z,3.95
2022-09-17T14:46:33.309Z,3.53
2022-09-17T14:47:35.459Z,3.72
2022-09-17T14:48:37.531Z,3.67
2022-09-17T14:49:41.067Z,3.80
2022-09-17T14:50:43.347Z,3.67
2022-09-17T14:51:45.610Z,3.97
2022-09-17T14:52:52.539Z,3.40
2022-09-17T14:54:26.508Z,3.47
2022-09-17T14:55:32.050Z,3.70
2022-09-17T14:56:45.080Z,4.50
2022-09-17T14:57:56.743Z,4.03
2022-09-17T14:58:59.001Z,3.70
2022-09-17T15:00:01.317Z,3.83
2022-09-17T15:01:03.635Z,3.95
2022-09-17T15:02:32.708Z,4.43
2022-09-17T15:03:34.982Z,3.28
2022-09-17T15:04:37.170Z,3.03
2022-09-17T15:05:40.994Z,3.57
2022-09-17T15:06:44.357Z,3.88
2022-09-17T15:07:46.952Z,3.50
2022-09-17T15:08:49.488Z,3.22
2022-09-17T15:09:55.235Z,3.65
2022-09-17T15:11:17.732Z,4.13
2022-09-17T15:12:24.053Z,4.10
2022-09-17T15:13:29.367Z,3.95
2022-09-17T15:14:34.685Z,3.30
2022-09-17T15:15:37.006Z,3.83
2022-09-17T15:16:47.909Z,3.27
2022-09-17T15:17:51.635Z,3.90
2022-09-17T15:18:57.566Z,3.28
2022-09-17T15:20:05.780Z,3.58
2022-09-17T15:21:24.320Z,3.15
2022-09-17T15:22:32.053Z,3.78
2022-09-17T15:23:36.075Z,3.80
2022-09-17T15:24:44.988Z,3.88
2022-09-17T15:25:50.419Z,3.33
2022-09-17T15:26:57.363Z,4.03
2022-09-17T15:28:12.566Z,3.83
2022-09-17T15:29:15.425Z,4.70
2022-09-17T15:30:21.872Z,3.92
2022-09-17T15:31:24.333Z,3.30
2022-09-17T15:32:26.833Z,4.55
2022-09-17T15:33:31.739Z,3.53
2022-09-17T15:34:33.939Z,3.45
2022-09-17T15:35:35.990Z,4.05
2022-09-17T15:36:38.140Z,3.90
2022-09-17T15:38:05.699Z,3.50
2022-09-17T15:39:32.532Z,3.67
2022-09-17T15:40:42.141Z,3.58
2022-09-17T15:41:44.236Z,3.78
2022-09-17T15:42:55.522Z,3.67
2022-09-17T15:44:30.349Z,3.40
2022-09-17T15:45:39.329Z,3.38
2022-09-17T15:46:42.064Z,3.25
2022-09-17T15:47:53.771Z,3.67
2022-09-17T15:48:58.680Z,3.83
2022-09-17T15:50:17.182Z,4.00
2022-09-17T15:51:27.123Z,3.77
2022-09-17T15:52:34.416Z,4.03
2022-09-17T15:53:37.286Z,4.00
2022-09-17T15:54:39.486Z,3.63
2022-09-17T15:55:48.424Z,3.50
2022-09-17T15:56:57.061Z,3.60
2022-09-17T15:58:01.254Z,3.85
2022-09-17T15:59:27.896Z,4.18
2022-09-17T16:00:31.852Z,4.05
2022-09-17T16:01:34.096Z,3.88
2022-09-17T16:02:36.638Z,4.10
2022-09-17T16:03:38.907Z,3.88
2022-09-17T16:04:41.215Z,3.83
2022-09-17T16:05:47.526Z,4.07
2022-09-17T16:07:15.472Z,4.47
2022-09-17T16:08:19.504Z,3.95
2022-09-17T16:09:49.316Z,4.38
2022-09-17T16:10:51.841Z,4.05
2022-09-17T16:11:54.334Z,4.00
2022-09-17T16:12:56.454Z,4.55
2022-09-17T16:14:01.003Z,4.83
2022-09-17T16:15:07.485Z,4.93
2022-09-17T16:16:15.959Z,4.60
2022-09-17T16:17:24.860Z,4.22
2022-09-17T16:18:27.802Z,4.38
2022-09-17T16:19:29.960Z,4.97
2022-09-17T16:20:32.104Z,4.60
2022-09-17T16:21:34.349Z,4.30
2022-09-17T16:22:36.553Z,4.15
2022-09-17T16:23:38.654Z,3.92
2022-09-17T16:24:41.240Z,4.50
2022-09-17T16:25:43.622Z,4.03
2022-09-17T16:26:45.734Z,4.38
2022-09-17T16:27:51.101Z,4.30
2022-09-17T16:28:57.074Z,4.82
2022-09-17T16:30:04.540Z,4.20
2022-09-17T16:31:06.919Z,4.40
2022-09-17T16:32:11.309Z,4.85
2022-09-17T16:33:14.793Z,4.72
2022-09-17T16:34:16.863Z,4.93
2022-09-17T16:35:22.006Z,4.27
2022-09-17T16:36:24.491Z,4.60
2022-09-17T16:37:26.589Z,4.30
2022-09-17T16:38:28.642Z,4.30